Time;durP1;ratioP1;P1;durP2;ratioP2;P2;SDS_P1;SDS_P2;PMS_P1;PMS_P2;Temp;Humidity;BMP_temperature;BMP_pressure;BME280_temperature;BME280_humidity;BME280_pressure;Samples;Min_cycle;Max_cycle;Signal;HPM_P1;HPM_P2
2024/01/09 00:02:13;;;;;;;5.17;3.37;;;-2.50;99.90;;;;;;5097446;28;20177;-60
2024/01/09 00:04:38;;;;;;;5.97;3.40;;;-2.60;99.90;;;;;;5097377;28;20171;-60
2024/01/09 00:07:04;;;;;;;4.83;2.90;;;-2.60;99.90;;;;;;5097079;28;20651;-60
2024/01/09 00:09:33;;;;;;;5.47;2.93;;;-2.60;99.90;;;;;;5097452;28;20535;-60
2024/01/09 00:11:59;;;;;;;5.97;3.50;;;-2.60;99.90;;;;;;5097345;28;20174;-61
2024/01/09 00:14:25;;;;;;;5.27;3.30;;;-2.60;99.90;;;;;;5097210;28;20277;-61
2024/01/09 00:16:50;;;;;;;4.87;3.60;;;-2.60;99.90;;;;;;5097144;28;20224;-61
2024/01/09 00:19:16;;;;;;;5.13;3.10;;;-2.50;99.90;;;;;;5097116;28;20178;-60
2024/01/09 00:21:42;;;;;;;5.80;3.30;;;-2.50;99.90;;;;;;5096749;28;20593;-60
2024/01/09 00:24:08;;;;;;;6.03;3.40;;;-2.60;99.90;;;;;;5096946;28;20222;-60
2024/01/09 00:26:44;;;;;;;6.53;3.10;;;-2.50;99.90;;;;;;5097102;28;20178;-60
2024/01/09 00:29:10;;;;;;;4.90;3.63;;;-2.40;99.90;;;;;;5096641;28;20174;-61
2024/01/09 00:31:36;;;;;;;5.33;3.57;;;-2.50;99.90;;;;;;5096824;28;20273;-61
2024/01/09 00:34:02;;;;;;;4.87;3.30;;;-2.50;99.90;;;;;;5096849;28;20175;-61
2024/01/09 00:36:28;;;;;;;6.23;3.37;;;-2.60;99.90;;;;;;5096934;28;20204;-61
2024/01/09 00:38:53;;;;;;;6.70;3.17;;;-2.60;99.90;;;;;;5096775;28;20206;-60
2024/01/09 00:41:19;;;;;;;5.33;3.30;;;-2.70;99.90;;;;;;5096426;28;20174;-60
2024/01/09 00:43:45;;;;;;;6.63;4.03;;;-2.60;99.90;;;;;;5096673;28;20593;-60
2024/01/09 00:46:11;;;;;;;4.50;3.20;;;-2.70;99.90;;;;;;5096664;28;20194;-60
2024/01/09 00:48:37;;;;;;;7.43;4.50;;;-2.70;99.90;;;;;;5096568;28;20615;-61
2024/01/09 00:51:04;;;;;;;5.83;3.57;;;-2.80;99.90;;;;;;5096165;28;20598;-62
2024/01/09 00:53:29;;;;;;;5.30;3.30;;;-2.80;99.90;;;;;;5096481;28;20302;-60
2024/01/09 00:55:56;;;;;;;6.43;3.77;;;-2.80;99.90;;;;;;5096410;28;20285;-61
2024/01/09 00:58:22;;;;;;;4.30;3.60;;;-2.70;99.90;;;;;;5096358;28;20259;-60
2024/01/09 01:00:47;;;;;;;5.60;3.53;;;-2.80;99.90;;;;;;5095097;28;20236;-60
2024/01/09 01:03:13;;;;;;;5.87;3.40;;;-2.80;99.90;;;;;;5096254;28;20265;-61
2024/01/09 01:05:39;;;;;;;5.60;3.53;;;-2.80;99.90;;;;;;5095968;28;20650;-61
2024/01/09 01:08:05;;;;;;;5.57;3.73;;;-2.80;99.90;;;;;;5096201;28;20183;-60
2024/01/09 01:10:30;;;;;;;6.03;3.53;;;-2.80;99.90;;;;;;5096049;28;20542;-60
2024/01/09 01:12:56;;;;;;;5.63;3.60;;;-2.90;99.90;;;;;;5096100;28;20517;-61
2024/01/09 01:15:23;;;;;;;6.80;3.90;;;-2.90;99.90;;;;;;5096002;28;20181;-60
2024/01/09 01:17:49;;;;;;;5.33;3.20;;;-2.90;99.90;;;;;;5095974;28;20174;-61
2024/01/09 01:20:15;;;;;;;6.17;3.50;;;-2.90;99.90;;;;;;5095969;28;20195;-61
2024/01/09 01:22:41;;;;;;;6.40;3.17;;;-2.90;99.90;;;;;;5095866;28;20181;-60
2024/01/09 01:25:08;;;;;;;5.00;3.07;;;-2.90;99.90;;;;;;5095933;28;20226;-61
2024/01/09 01:27:33;;;;;;;3.53;2.90;;;-2.80;99.90;;;;;;5095766;28;20198;-61
2024/01/09 01:29:59;;;;;;;4.93;3.50;;;-2.90;99.90;;;;;;5095709;28;20668;-61
2024/01/09 01:32:24;;;;;;;6.57;3.50;;;-2.90;99.90;;;;;;5095732;28;20265;-61
2024/01/09 01:34:50;;;;;;;4.53;2.73;;;-3.00;99.90;;;;;;5095995;28;20688;-61
2024/01/09 01:37:16;;;;;;;4.57;3.03;;;-3.00;99.90;;;;;;5095625;28;20620;-62
2024/01/09 01:39:41;;;;;;;4.30;3.20;;;-3.00;99.90;;;;;;5095562;28;20620;-61
2024/01/09 01:42:07;;;;;;;4.67;2.97;;;-2.80;99.90;;;;;;5095538;28;20520;-60
2024/01/09 01:44:32;;;;;;;6.43;3.37;;;-3.00;99.90;;;;;;5095269;28;20651;-60
2024/01/09 01:46:58;;;;;;;4.73;2.90;;;-2.90;99.90;;;;;;5095435;28;20178;-60
2024/01/09 01:49:25;;;;;;;4.37;3.20;;;-3.00;99.90;;;;;;5095203;28;20270;-61
2024/01/09 01:51:51;;;;;;;5.63;3.27;;;-2.90;99.90;;;;;;5095452;28;20174;-61
2024/01/09 01:54:19;;;;;;;4.73;3.00;;;-2.90;99.90;;;;;;5095298;28;20174;-60
2024/01/09 01:56:47;;;;;;;5.93;3.37;;;-2.90;99.90;;;;;;5095395;28;20224;-61
2024/01/09 01:59:15;;;;;;;4.20;3.27;;;-3.00;99.90;;;;;;5095138;28;20624;-61
2024/01/09 02:01:43;;;;;;;5.27;3.40;;;-3.10;99.90;;;;;;5095162;28;20179;-60
2024/01/09 02:04:10;;;;;;;4.77;3.10;;;-3.10;99.90;;;;;;5095048;28;20189;-60
2024/01/09 02:06:37;;;;;;;4.17;3.17;;;-3.10;99.90;;;;;;5095143;28;20171;-61
2024/01/09 02:09:04;;;;;;;3.63;2.60;;;-3.10;99.90;;;;;;5095114;28;20574;-61
2024/01/09 02:11:29;;;;;;;5.17;3.43;;;-3.10;99.90;;;;;;5094719;28;20210;-60
2024/01/09 02:13:55;;;;;;;4.27;2.87;;;-2.90;99.90;;;;;;5094865;28;20693;-61
2024/01/09 02:16:21;;;;;;;4.87;3.20;;;-2.80;99.90;;;;;;5094861;28;20198;-61
2024/01/09 02:18:46;;;;;;;6.03;3.97;;;-2.80;99.90;;;;;;5094822;28;20178;-61
2024/01/09 02:21:12;;;;;;;6.00;3.27;;;-3.00;99.90;;;;;;5094785;28;20178;-60
2024/01/09 02:23:39;;;;;;;4.47;2.90;;;-2.90;99.90;;;;;;5094644;28;20709;-61
2024/01/09 02:26:05;;;;;;;4.00;2.90;;;-3.00;99.90;;;;;;5094640;28;20638;-60
2024/01/09 02:28:36;;;;;;;6.80;4.00;;;-3.10;99.90;;;;;;5094347;28;20643;-60
2024/01/09 02:31:02;;;;;;;4.73;2.87;;;-3.20;99.90;;;;;;5094533;28;20216;-60
2024/01/09 02:33:28;;;;;;;5.60;3.50;;;-3.20;99.90;;;;;;5094479;28;20646;-61
2024/01/09 02:35:54;;;;;;;5.53;3.73;;;-3.10;99.90;;;;;;5094429;28;20266;-60
2024/01/09 02:38:21;;;;;;;5.83;3.57;;;-3.20;99.90;;;;;;5094165;28;20213;-60
2024/01/09 02:40:46;;;;;;;4.70;3.30;;;-3.20;99.90;;;;;;5094650;28;20182;-61
2024/01/09 02:43:12;;;;;;;4.10;3.13;;;-3.20;99.90;;;;;;5094394;28;20260;-61
2024/01/09 02:45:38;;;;;;;4.37;3.30;;;-3.20;99.90;;;;;;5094304;28;20178;-61
2024/01/09 02:48:04;;;;;;;4.37;3.13;;;-3.10;99.90;;;;;;5094297;28;20228;-60
2024/01/09 02:50:29;;;;;;;5.03;3.60;;;-3.10;99.90;;;;;;5094171;28;20213;-60
2024/01/09 02:52:55;;;;;;;4.30;2.93;;;-3.10;99.90;;;;;;5094236;28;20548;-60
2024/01/09 02:55:21;;;;;;;4.43;3.10;;;-3.20;99.90;;;;;;5094192;28;20532;-60
2024/01/09 02:57:46;;;;;;;7.03;3.77;;;-3.20;99.90;;;;;;5094263;28;20178;-61
2024/01/09 03:00:12;;;;;;;9.83;3.73;;;-3.10;99.90;;;;;;5094203;28;20178;-60
2024/01/09 03:02:38;;;;;;;4.20;2.87;;;-3.10;99.90;;;;;;5094035;28;20220;-61
2024/01/09 03:05:05;;;;;;;3.93;3.03;;;-3.10;99.90;;;;;;5080697;28;20210;-61
2024/01/09 03:07:31;;;;;;;4.97;2.40;;;-3.10;99.90;;;;;;5073694;28;20309;-60
2024/01/09 03:09:56;;;;;;;5.87;3.73;;;-3.30;99.90;;;;;;5073530;28;20617;-61
2024/01/09 03:12:22;;;;;;;4.80;3.43;;;-3.30;99.90;;;;;;5073643;28;20224;-61
2024/01/09 03:14:48;;;;;;;5.73;3.97;;;-3.20;99.90;;;;;;5073612;28;20177;-61
2024/01/09 03:17:13;;;;;;;4.80;2.93;;;-3.20;99.90;;;;;;5073589;28;20179;-61
2024/01/09 03:19:42;;;;;;;4.00;2.90;;;-3.30;99.90;;;;;;5073607;28;20179;-60
2024/01/09 03:22:08;;;;;;;6.00;3.30;;;-3.40;99.90;;;;;;5073415;28;20225;-61
2024/01/09 03:24:34;;;;;;;5.07;3.10;;;-3.40;99.90;;;;;;5073122;28;20610;-61
2024/01/09 03:27:00;;;;;;;5.03;3.37;;;-3.40;99.90;;;;;;5073882;28;20171;-61
2024/01/09 03:29:25;;;;;;;4.97;3.63;;;-3.40;99.90;;;;;;5073369;28;20176;-61
2024/01/09 03:31:51;;;;;;;5.73;3.50;;;-3.40;99.90;;;;;;5073397;28;20198;-61
2024/01/09 03:34:17;;;;;;;5.50;3.33;;;-3.30;99.90;;;;;;5073495;28;20182;-61
2024/01/09 03:36:46;;;;;;;4.07;2.97;;;-3.30;99.90;;;;;;5073411;28;20182;-61
2024/01/09 03:39:14;;;;;;;4.63;3.20;;;-3.30;99.90;;;;;;5073387;28;20288;-61
2024/01/09 03:41:41;;;;;;;5.93;3.37;;;-3.40;99.90;;;;;;5073288;28;20179;-62
2024/01/09 03:44:07;;;;;;;6.13;3.10;;;-3.30;99.90;;;;;;5073608;28;20186;-61
2024/01/09 03:46:33;;;;;;;4.10;2.87;;;-3.40;99.90;;;;;;5073284;28;20616;-61
2024/01/09 03:48:58;;;;;;;3.80;2.80;;;-3.40;99.90;;;;;;5073287;28;20179;-61
2024/01/09 03:51:24;;;;;;;6.63;3.63;;;-3.40;99.90;;;;;;5073405;28;20230;-61
2024/01/09 03:53:49;;;;;;;4.60;3.00;;;-3.50;99.90;;;;;;5073257;28;20171;-61
2024/01/09 03:56:15;;;;;;;5.17;3.70;;;-3.50;99.90;;;;;;5072887;28;20247;-61
2024/01/09 03:58:41;;;;;;;6.23;3.60;;;-3.40;99.90;;;;;;5073157;28;20182;-61
2024/01/09 04:01:06;;;;;;;5.13;3.13;;;-3.40;99.90;;;;;;5073095;28;20180;-61
2024/01/09 04:03:32;;;;;;;4.73;2.90;;;-3.50;99.90;;;;;;5073159;28;20171;-61
2024/01/09 04:05:58;;;;;;;3.90;2.93;;;-3.40;99.90;;;;;;5073074;28;20171;-61
2024/01/09 04:08:23;;;;;;;3.93;2.73;;;-3.30;99.90;;;;;;5072810;28;20179;-60
2024/01/09 04:10:49;;;;;;;5.20;3.10;;;-3.40;99.90;;;;;;5072973;28;20214;-60
2024/01/09 04:13:15;;;;;;;6.63;3.13;;;-3.50;99.90;;;;;;5073005;28;20205;-61
2024/01/09 04:15:41;;;;;;;5.23;3.00;;;-3.50;99.90;;;;;;5055037;28;20266;-60
2024/01/09 04:18:07;;;;;;;3.93;2.60;;;-3.50;99.90;;;;;;5073021;28;20176;-60
2024/01/09 04:20:32;;;;;;;4.47;3.17;;;-3.60;99.90;;;;;;5072945;28;20186;-61
2024/01/09 04:22:58;;;;;;;3.97;3.10;;;-3.50;99.90;;;;;;5073028;28;20535;-61
2024/01/09 04:25:24;;;;;;;4.57;2.80;;;-3.60;99.90;;;;;;5072480;28;20292;-61
2024/01/09 04:27:49;;;;;;;7.77;3.17;;;-3.60;99.90;;;;;;5072657;28;20177;-60
2024/01/09 04:30:15;;;;;;;4.17;3.10;;;-3.60;99.90;;;;;;5072711;28;20207;-61
2024/01/09 04:32:41;;;;;;;5.07;3.20;;;-3.60;99.90;;;;;;5072817;28;20536;-60
2024/01/09 04:35:06;;;;;;;5.47;3.43;;;-3.50;99.90;;;;;;5073677;28;20184;-61
2024/01/09 04:37:32;;;;;;;4.73;2.67;;;-3.60;99.90;;;;;;5076532;28;20228;-61
2024/01/09 04:39:57;;;;;;;4.80;3.33;;;-3.60;99.90;;;;;;5076226;28;20604;-61
2024/01/09 04:42:23;;;;;;;4.63;3.43;;;-3.50;99.90;;;;;;5076166;28;20175;-61
2024/01/09 04:44:49;;;;;;;4.27;3.10;;;-3.60;99.90;;;;;;5076316;28;20183;-61
2024/01/09 04:47:15;;;;;;;4.33;3.17;;;-3.70;99.90;;;;;;5076044;28;20620;-61
2024/01/09 04:49:44;;;;;;;4.30;3.10;;;-3.60;99.90;;;;;;5076224;28;20167;-60
2024/01/09 04:52:10;;;;;;;5.30;2.93;;;-3.50;99.90;;;;;;5076244;28;20179;-61
2024/01/09 04:54:36;;;;;;;4.17;3.07;;;-3.50;99.90;;;;;;5076224;28;20691;-61
2024/01/09 04:57:02;;;;;;;4.73;2.90;;;-3.50;99.90;;;;;;5076181;28;20263;-61
2024/01/09 04:59:28;;;;;;;5.47;3.13;;;-3.60;99.90;;;;;;5075735;28;20640;-61
2024/01/09 05:01:53;;;;;;;3.73;2.90;;;-3.70;99.90;;;;;;5075709;28;20194;-61
2024/01/09 05:04:19;;;;;;;5.17;3.10;;;-3.70;99.90;;;;;;5076061;28;20179;-61
2024/01/09 05:06:45;;;;;;;6.47;3.20;;;-3.70;99.90;;;;;;5076103;28;20644;-61
2024/01/09 05:09:11;;;;;;;5.17;3.37;;;-3.80;99.90;;;;;;5075873;28;20179;-61
2024/01/09 05:11:37;;;;;;;4.03;2.97;;;-3.70;99.90;;;;;;5075845;28;20256;-61
2024/01/09 05:14:03;;;;;;;6.47;3.00;;;-3.80;99.90;;;;;;5075876;28;20179;-61
2024/01/09 05:16:29;;;;;;;4.83;2.90;;;-3.80;99.90;;;;;;5075773;28;20183;-61
2024/01/09 05:18:54;;;;;;;4.07;2.60;;;-3.80;99.90;;;;;;5075629;28;20320;-61
2024/01/09 05:21:21;;;;;;;3.80;2.93;;;-3.70;99.90;;;;;;5075690;28;20701;-61
2024/01/09 05:23:47;;;;;;;5.17;3.17;;;-3.70;99.90;;;;;;5075572;28;20272;-61
2024/01/09 05:26:13;;;;;;;4.43;3.03;;;-3.80;99.90;;;;;;5075775;28;20266;-61
2024/01/09 05:28:38;;;;;;;4.70;2.90;;;-3.80;99.90;;;;;;5075547;28;20225;-61
2024/01/09 05:31:04;;;;;;;3.90;3.30;;;-3.80;99.90;;;;;;5075355;28;20238;-61
2024/01/09 05:33:31;;;;;;;5.00;2.87;;;-3.90;99.90;;;;;;5080647;28;20183;-60
2024/01/09 05:35:57;;;;;;;4.70;2.83;;;-3.90;99.90;;;;;;5095548;28;20186;-61
2024/01/09 05:38:23;;;;;;;5.43;3.20;;;-3.80;99.90;;;;;;5095675;28;20174;-60
2024/01/09 05:40:51;;;;;;;4.77;3.37;;;-3.80;99.90;;;;;;5095612;28;20590;-61
2024/01/09 05:43:17;;;;;;;3.90;2.77;;;-3.70;99.90;;;;;;5077409;28;20613;-60
2024/01/09 05:45:42;;;;;;;4.87;3.00;;;-3.80;99.90;;;;;;5095081;28;20205;-64
2024/01/09 05:48:08;;;;;;;4.00;3.20;;;-3.70;99.90;;;;;;5095718;28;20166;-60
2024/01/09 05:50:34;;;;;;;4.10;2.90;;;-3.80;99.90;;;;;;5095856;28;20224;-61
2024/01/09 05:53:01;;;;;;;6.43;3.50;;;-3.80;99.90;;;;;;5095313;28;20419;-61
2024/01/09 05:55:27;;;;;;;4.47;2.87;;;-3.80;99.90;;;;;;5095325;28;20182;-61
2024/01/09 05:57:53;;;;;;;4.50;3.07;;;-3.90;99.90;;;;;;5094896;28;20512;-60
2024/01/09 06:00:19;;;;;;;9.10;4.73;;;-3.90;99.90;;;;;;5095235;28;20257;-62
2024/01/09 06:02:44;;;;;;;4.43;3.00;;;-3.90;99.90;;;;;;5094841;28;20270;-61
2024/01/09 06:05:10;;;;;;;4.90;3.30;;;-3.80;99.90;;;;;;5094854;28;20223;-62
2024/01/09 06:07:36;;;;;;;4.50;2.97;;;-4.00;99.90;;;;;;5095042;28;20175;-62
2024/01/09 06:10:02;;;;;;;4.07;3.07;;;-3.90;99.90;;;;;;5094924;28;20210;-63
2024/01/09 06:12:28;;;;;;;3.87;2.83;;;-3.80;99.90;;;;;;5094636;28;20654;-63
2024/01/09 06:14:53;;;;;;;4.53;3.10;;;-3.80;99.90;;;;;;5094650;28;20174;-61
2024/01/09 06:17:19;;;;;;;4.57;2.83;;;-3.90;99.90;;;;;;5094610;28;20171;-62
2024/01/09 06:19:44;;;;;;;3.73;3.00;;;-3.90;99.90;;;;;;5094818;28;20190;-62
2024/01/09 06:22:12;;;;;;;4.30;2.80;;;-3.90;99.90;;;;;;5094795;28;20185;-62
2024/01/09 06:24:37;;;;;;;4.53;3.03;;;-3.90;99.90;;;;;;5094777;28;20248;-62
2024/01/09 06:27:03;;;;;;;5.23;3.40;;;-3.90;99.90;;;;;;5094665;28;20178;-62
2024/01/09 06:29:29;;;;;;;4.70;3.10;;;-3.90;99.90;;;;;;5094935;28;20179;-61
2024/01/09 06:31:55;;;;;;;5.53;3.50;;;-3.90;99.90;;;;;;5094573;28;20179;-61
2024/01/09 06:34:21;;;;;;;4.20;3.00;;;-3.90;99.90;;;;;;5094676;28;20174;-61
2024/01/09 06:36:47;;;;;;;4.03;2.63;;;-3.80;99.90;;;;;;5094521;28;20181;-61
2024/01/09 06:39:13;;;;;;;6.03;3.20;;;-3.80;99.90;;;;;;5094415;28;20175;-62
2024/01/09 06:41:38;;;;;;;4.77;3.27;;;-4.00;99.90;;;;;;5094398;28;20185;-62
2024/01/09 06:44:04;;;;;;;5.57;3.57;;;-4.00;99.90;;;;;;5094323;28;20587;-61
2024/01/09 06:46:30;;;;;;;4.20;3.30;;;-4.10;99.90;;;;;;5094085;28;20178;-62
2024/01/09 06:48:56;;;;;;;5.43;3.53;;;-4.10;99.90;;;;;;5094246;28;20174;-62
2024/01/09 06:51:22;;;;;;;5.57;3.87;;;-4.00;99.90;;;;;;5093810;28;20206;-62
2024/01/09 06:53:47;;;;;;;5.77;3.47;;;-4.10;99.90;;;;;;5094208;28;20261;-62
2024/01/09 06:56:13;;;;;;;5.57;3.37;;;-4.20;99.90;;;;;;5094126;28;20236;-62
2024/01/09 06:58:39;;;;;;;4.70;3.23;;;-4.20;99.90;;;;;;5075165;28;20531;-62
2024/01/09 07:01:06;;;;;;;6.10;3.60;;;-4.10;99.90;;;;;;5094063;28;20182;-61
2024/01/09 07:03:32;;;;;;;3.77;3.00;;;-4.10;99.90;;;;;;5093952;28;20185;-61
2024/01/09 07:05:58;;;;;;;4.63;3.43;;;-4.20;99.90;;;;;;5094005;28;20171;-62
2024/01/09 07:08:24;;;;;;;4.90;3.50;;;-4.10;99.90;;;;;;5093928;28;20553;-62
2024/01/09 07:10:49;;;;;;;5.73;3.43;;;-4.10;99.90;;;;;;5093759;28;20202;-62
2024/01/09 07:13:15;;;;;;;5.03;3.40;;;-4.10;99.90;;;;;;5093828;28;20177;-62
2024/01/09 07:15:41;;;;;;;5.37;3.20;;;-4.10;99.90;;;;;;5093773;28;20646;-62
2024/01/09 07:18:07;;;;;;;5.93;3.53;;;-4.20;99.90;;;;;;5093810;28;20198;-61
2024/01/09 07:20:32;;;;;;;4.90;3.40;;;-4.20;99.90;;;;;;5093517;28;20185;-62
2024/01/09 07:22:58;;;;;;;5.03;3.30;;;-4.30;99.90;;;;;;5093752;28;20181;-62
2024/01/09 07:25:24;;;;;;;5.77;3.57;;;-4.20;99.90;;;;;;5093274;28;20305;-61
2024/01/09 07:27:49;;;;;;;6.10;3.93;;;-4.20;99.90;;;;;;5093931;28;20212;-62
2024/01/09 07:30:16;;;;;;;4.93;3.70;;;-4.30;99.90;;;;;;5093249;28;20221;-62
2024/01/09 07:32:41;;;;;;;5.00;3.30;;;-4.20;99.90;;;;;;5093550;28;20182;-61
2024/01/09 07:35:07;;;;;;;4.87;3.30;;;-4.20;99.90;;;;;;5093120;28;20174;-62
2024/01/09 07:37:33;;;;;;;5.37;3.43;;;-4.20;99.90;;;;;;5093207;28;20233;-62
2024/01/09 07:39:59;;;;;;;4.90;3.20;;;-4.20;99.90;;;;;;5092023;28;20178;-62
2024/01/09 07:42:24;;;;;;;6.10;3.73;;;-4.20;99.90;;;;;;5093482;28;20691;-62
2024/01/09 07:44:50;;;;;;;5.40;3.40;;;-4.20;99.90;;;;;;5093502;28;20300;-62
2024/01/09 07:47:16;;;;;;;4.60;3.30;;;-4.20;99.90;;;;;;5093460;28;20206;-62
2024/01/09 07:49:42;;;;;;;7.23;3.83;;;-4.20;99.90;;;;;;5093325;28;20182;-62
2024/01/09 07:52:09;;;;;;;8.17;5.43;;;-4.10;99.90;;;;;;5093344;28;20178;-62
2024/01/09 07:54:34;;;;;;;5.63;4.10;;;-4.10;99.90;;;;;;5093414;28;20175;-62
2024/01/09 07:57:00;;;;;;;7.67;4.23;;;-4.20;99.90;;;;;;5093424;28;20181;-62
2024/01/09 07:59:26;;;;;;;5.03;3.57;;;-4.20;99.90;;;;;;5093336;28;20206;-63
2024/01/09 08:01:55;;;;;;;5.30;3.80;;;-4.30;99.90;;;;;;5093301;28;20182;-62
2024/01/09 08:04:24;;;;;;;4.63;3.73;;;-4.20;99.90;;;;;;5093367;28;20174;-62
2024/01/09 08:06:50;;;;;;;7.80;4.43;;;-4.30;99.90;;;;;;5093359;28;20174;-62
2024/01/09 08:09:19;;;;;;;6.50;3.73;;;-4.20;99.90;;;;;;5094422;28;20239;-62
2024/01/09 08:11:46;;;;;;;5.60;3.83;;;-4.20;99.90;;;;;;5097148;28;20206;-62
2024/01/09 08:14:13;;;;;;;6.10;3.70;;;-4.20;99.90;;;;;;5097201;28;20505;-62
2024/01/09 08:16:39;;;;;;;6.33;3.70;;;-4.20;99.90;;;;;;5097499;28;20206;-62
2024/01/09 08:19:04;;;;;;;5.83;3.53;;;-4.10;99.90;;;;;;5097004;28;20171;-61
2024/01/09 08:21:31;;;;;;;5.23;3.80;;;-4.10;99.90;;;;;;5097124;28;20179;-61
2024/01/09 08:23:57;;;;;;;5.70;3.60;;;-4.20;99.90;;;;;;5097210;28;20226;-62
2024/01/09 08:26:23;;;;;;;6.80;4.33;;;-4.10;99.90;;;;;;5096984;28;20627;-61
2024/01/09 08:28:48;;;;;;;7.50;4.10;;;-3.90;99.90;;;;;;5096940;28;20248;-61
2024/01/09 08:31:14;;;;;;;6.20;3.90;;;-4.00;99.90;;;;;;5097158;28;20202;-62
2024/01/09 08:33:40;;;;;;;6.27;4.30;;;-3.90;99.90;;;;;;5096884;28;20569;-61
2024/01/09 08:36:05;;;;;;;6.43;4.20;;;-3.90;99.90;;;;;;5096833;28;20178;-61
2024/01/09 08:38:31;;;;;;;6.20;3.90;;;-3.80;99.90;;;;;;5096821;28;20527;-61
2024/01/09 08:40:57;;;;;;;6.80;3.70;;;-3.90;99.90;;;;;;5096714;28;20186;-61
2024/01/09 08:43:24;;;;;;;6.43;3.77;;;-4.00;99.90;;;;;;5096352;28;20623;-61
2024/01/09 08:45:50;;;;;;;6.53;4.60;;;-4.00;99.90;;;;;;5096648;28;20598;-62
2024/01/09 08:48:17;;;;;;;8.23;4.13;;;-3.80;99.90;;;;;;5096353;28;20184;-62
2024/01/09 08:50:43;;;;;;;5.10;3.80;;;-3.80;99.90;;;;;;5096127;28;20613;-61
2024/01/09 08:53:09;;;;;;;5.70;3.80;;;-3.70;99.90;;;;;;5096372;28;20170;-61
2024/01/09 08:55:35;;;;;;;6.37;3.90;;;-3.70;99.90;;;;;;5096492;28;20182;-61
2024/01/09 08:58:00;;;;;;;6.40;4.27;;;-3.70;99.90;;;;;;5096400;28;20178;-62
2024/01/09 09:00:26;;;;;;;5.70;3.83;;;-3.70;99.90;;;;;;5096421;28;20643;-61
2024/01/09 09:02:52;;;;;;;6.33;3.30;;;-3.70;99.90;;;;;;5096017;28;20179;-62
2024/01/09 09:05:18;;;;;;;6.57;4.40;;;-3.60;99.90;;;;;;5096348;28;20265;-61
2024/01/09 09:07:43;;;;;;;5.57;3.87;;;-3.60;99.90;;;;;;5095948;28;20642;-61
2024/01/09 09:10:09;;;;;;;7.87;4.50;;;-3.60;99.90;;;;;;5096312;28;20202;-61
2024/01/09 09:12:35;;;;;;;6.17;3.87;;;-3.60;99.90;;;;;;5078207;28;20179;-62
2024/01/09 09:15:04;;;;;;;6.17;3.30;;;-3.50;99.90;;;;;;5096184;28;20170;-61
2024/01/09 09:17:33;;;;;;;5.17;3.63;;;-3.50;99.90;;;;;;5095786;28;20166;-61
2024/01/09 09:19:59;;;;;;;5.43;4.13;;;-3.40;99.90;;;;;;5095991;28;20181;-61
2024/01/09 09:22:25;;;;;;;6.80;4.40;;;-3.50;99.90;;;;;;5094903;28;20166;-62
2024/01/09 09:24:55;;;;;;;6.10;4.10;;;-3.50;99.90;;;;;;5095440;28;20667;-62
2024/01/09 09:27:20;;;;;;;5.30;3.77;;;-3.40;99.90;;;;;;5094693;28;20178;-61
2024/01/09 09:29:46;;;;;;;6.87;4.13;;;-3.20;99.90;;;;;;5093511;28;20178;-61
2024/01/09 09:32:12;;;;;;;5.50;3.93;;;-3.30;99.90;;;;;;5094566;28;20635;-62
2024/01/09 09:34:41;;;;;;;6.50;4.10;;;-3.30;99.90;;;;;;5094519;28;20574;-62
2024/01/09 09:37:07;;;;;;;6.37;3.57;;;-3.20;99.90;;;;;;5094420;28;20258;-61
2024/01/09 09:39:33;;;;;;;5.67;3.97;;;-3.20;99.90;;;;;;5094401;28;20624;-62
2024/01/09 09:41:59;;;;;;;6.27;4.77;;;-3.10;99.90;;;;;;5094750;28;20224;-61
2024/01/09 09:44:26;;;;;;;7.00;4.23;;;-3.10;99.90;;;;;;5095577;28;20179;-65
2024/01/09 09:46:52;;;;;;;5.47;4.00;;;-3.10;99.90;;;;;;5095508;28;20174;-62
2024/01/09 09:49:24;;;;;;;5.37;3.50;;;-3.00;99.90;;;;;;5095419;28;20177;-61
2024/01/09 09:51:56;;;;;;;6.27;3.93;;;-2.90;99.90;;;;;;5095453;28;20627;-61
2024/01/09 09:54:24;;;;;;;5.90;4.00;;;-2.80;99.90;;;;;;5095497;28;20607;-62
2024/01/09 09:56:49;;;;;;;6.37;3.63;;;-2.80;99.90;;;;;;5095554;28;20602;-62
2024/01/09 09:59:15;;;;;;;6.13;4.30;;;-2.80;99.90;;;;;;5095331;28;20218;-62
2024/01/09 10:01:43;;;;;;;6.67;4.03;;;-2.70;99.90;;;;;;5094994;28;20183;-61
2024/01/09 10:04:24;;;;;;;7.20;4.40;;;-2.80;99.90;;;;;;5094963;28;20501;-61
2024/01/09 10:06:52;;;;;;;4.77;3.90;;;-2.70;99.90;;;;;;5095410;28;20170;-62
2024/01/09 10:09:19;;;;;;;6.10;4.03;;;-2.60;99.90;;;;;;5095126;28;20170;-62
2024/01/09 10:11:49;;;;;;;6.57;4.60;;;-2.60;99.90;;;;;;5094950;28;20202;-61
2024/01/09 10:14:15;;;;;;;5.73;4.10;;;-2.60;99.90;;;;;;5095016;28;20178;-61
2024/01/09 10:16:53;;;;;;;7.10;3.80;;;-2.50;99.90;;;;;;5094678;28;20535;-61
2024/01/09 10:19:23;;;;;;;6.87;3.90;;;-2.30;99.90;;;;;;5094618;28;20619;-61
2024/01/09 10:21:50;;;;;;;8.90;4.37;;;-2.40;99.90;;;;;;5094762;28;20175;-62
2024/01/09 10:24:16;;;;;;;6.73;4.03;;;-2.40;99.90;;;;;;5094274;28;20228;-61
2024/01/09 10:26:43;;;;;;;7.63;4.93;;;-2.30;99.90;;;;;;5094793;28;20575;-61
2024/01/09 10:29:10;;;;;;;5.60;3.80;;;-2.30;99.90;;;;;;5094436;28;20171;-62
2024/01/09 10:31:36;;;;;;;8.13;4.50;;;-2.40;99.90;;;;;;5094535;28;20202;-61
2024/01/09 10:34:01;;;;;;;5.60;3.97;;;-2.40;99.90;;;;;;5093598;28;20209;-61
2024/01/09 10:36:28;;;;;;;7.03;3.87;;;-2.30;99.90;;;;;;5094490;28;20616;-61
2024/01/09 10:39:06;;;;;;;5.37;4.23;;;-2.20;99.90;;;;;;5094491;28;20606;-61
2024/01/09 10:41:33;;;;;;;7.80;5.00;;;-2.10;99.90;;;;;;5094168;28;20178;-61
2024/01/09 10:44:02;;;;;;;5.83;4.30;;;-2.00;99.90;;;;;;5094245;28;20647;-61
2024/01/09 10:46:31;;;;;;;4.70;3.63;;;-2.00;99.90;;;;;;5094333;28;20181;-60
2024/01/09 10:48:58;;;;;;;5.80;3.93;;;-1.90;99.90;;;;;;5094349;28;20181;-62
2024/01/09 10:51:24;;;;;;;6.77;4.83;;;-1.80;99.90;;;;;;5094186;28;20679;-61
2024/01/09 10:53:53;;;;;;;6.60;4.47;;;-1.80;99.90;;;;;;5094274;28;20227;-61
2024/01/09 10:56:22;;;;;;;7.17;4.40;;;-1.70;99.90;;;;;;5094491;28;20171;-61
2024/01/09 10:58:50;;;;;;;6.50;3.80;;;-1.60;99.90;;;;;;5094189;28;20268;-61
2024/01/09 11:01:16;;;;;;;5.13;3.97;;;-1.80;99.90;;;;;;5093613;28;20182;-61
2024/01/09 11:03:45;;;;;;;7.10;4.40;;;-1.80;99.90;;;;;;5093537;28;20185;-61
2024/01/09 11:06:14;;;;;;;4.33;3.50;;;-1.70;99.90;;;;;;5093978;28;20185;-61
2024/01/09 11:08:43;;;;;;;6.30;4.00;;;-1.60;99.90;;;;;;5094056;28;20171;-61
2024/01/09 11:11:12;;;;;;;7.43;4.10;;;-1.60;99.90;;;;;;5093847;28;20202;-61
2024/01/09 11:13:42;;;;;;;6.27;4.27;;;-1.40;99.90;;;;;;5094219;28;20167;-62
2024/01/09 11:16:09;;;;;;;4.90;3.97;;;-1.30;99.90;;;;;;5093946;28;20175;-61
2024/01/09 11:18:36;;;;;;;6.23;4.70;;;-1.20;99.90;;;;;;5093861;28;20177;-61
2024/01/09 11:21:03;;;;;;;7.13;4.70;;;-1.20;99.90;;;;;;5093691;28;20192;-61
2024/01/09 11:23:49;;;;;;;4.67;3.53;;;-1.20;99.90;;;;;;5080976;28;20754;-61
2024/01/09 11:26:14;;;;;;;5.80;4.40;;;-1.20;99.90;;;;;;5084379;28;20178;-61
2024/01/09 11:28:43;;;;;;;5.57;4.00;;;-1.30;99.90;;;;;;5082173;28;20181;-60
2024/01/09 11:31:12;;;;;;;6.27;3.90;;;-1.20;99.90;;;;;;5090643;28;20209;-60
2024/01/09 11:33:41;;;;;;;5.40;3.90;;;-1.10;99.90;;;;;;5093619;28;20181;-60
2024/01/09 11:36:08;;;;;;;5.17;3.83;;;-1.10;99.90;;;;;;5092858;28;20178;-60
2024/01/09 11:38:34;;;;;;;9.23;5.80;;;-1.10;99.90;;;;;;5093265;28;20173;-61
2024/01/09 11:41:04;;;;;;;5.43;3.80;;;-1.00;99.90;;;;;;5093483;28;20183;-60
2024/01/09 11:43:50;;;;;;;7.17;4.00;;;-1.00;99.90;;;;;;5093014;28;20181;-61
2024/01/09 11:46:16;;;;;;;6.97;4.47;;;-1.10;99.90;;;;;;5093135;28;20583;-60
2024/01/09 11:48:43;;;;;;;6.20;4.60;;;-1.00;99.90;;;;;;5093374;28;20251;-60
2024/01/09 11:51:09;;;;;;;6.50;4.73;;;-1.00;99.90;;;;;;5093395;28;20206;-60
2024/01/09 11:53:35;;;;;;;8.40;4.57;;;-1.00;99.90;;;;;;5093941;28;20189;-61
2024/01/09 11:56:01;;;;;;;6.07;4.30;;;-0.90;99.90;;;;;;5093437;28;20615;-62
2024/01/09 11:58:27;;;;;;;7.43;4.13;;;-0.80;99.90;;;;;;5093406;28;20186;-61
2024/01/09 12:00:53;;;;;;;5.83;4.10;;;-0.80;99.90;;;;;;5093405;28;20326;-60
2024/01/09 12:03:19;;;;;;;5.53;4.10;;;-0.80;99.90;;;;;;5093714;28;20640;-61
2024/01/09 12:05:45;;;;;;;6.50;3.80;;;-0.70;99.90;;;;;;5093659;28;20194;-61
2024/01/09 12:08:11;;;;;;;6.60;4.10;;;-0.70;99.90;;;;;;5093228;28;20175;-61
2024/01/09 12:10:43;;;;;;;5.20;4.10;;;-0.50;99.90;;;;;;5092901;28;20274;-61
2024/01/09 12:13:09;;;;;;;4.57;3.73;;;-0.50;99.90;;;;;;5093272;28;20269;-61
2024/01/09 12:15:34;;;;;;;5.60;3.83;;;-0.60;99.90;;;;;;5093188;28;20679;-61
2024/01/09 12:18:02;;;;;;;7.67;6.87;;;-0.50;99.90;;;;;;5093342;28;20173;-61
2024/01/09 12:20:28;;;;;;;10.40;9.30;;;-0.40;99.90;;;;;;5093506;28;20174;-61
2024/01/09 12:22:54;;;;;;;6.73;4.40;;;-0.30;99.70;;;;;;5093063;28;20194;-61
2024/01/09 12:25:20;;;;;;;5.13;3.90;;;-0.30;99.40;;;;;;5093378;28;20694;-61
2024/01/09 12:27:46;;;;;;;5.67;4.00;;;-0.20;99.70;;;;;;5093087;28;20179;-61
2024/01/09 12:30:13;;;;;;;7.23;5.10;;;-0.30;99.80;;;;;;5092695;28;20202;-60
2024/01/09 12:32:40;;;;;;;5.40;4.03;;;-0.40;99.10;;;;;;5092947;28;20185;-60
2024/01/09 12:35:07;;;;;;;6.13;4.20;;;-0.50;99.90;;;;;;5092928;28;20178;-60
2024/01/09 12:37:32;;;;;;;5.50;3.80;;;-0.40;99.90;;;;;;5093095;28;20178;-60
2024/01/09 12:40:01;;;;;;;6.30;4.33;;;-0.30;99.90;;;;;;5092748;28;20245;-60
2024/01/09 12:42:27;;;;;;;4.93;3.90;;;-0.20;99.80;;;;;;5092922;28;20531;-60
2024/01/09 12:44:53;;;;;;;8.67;4.00;;;-0.20;98.90;;;;;;5092876;28;20182;-59